Time;durP1;ratioP1;P1;durP2;ratioP2;P2;SDS_P1;SDS_P2;PMS_P1;PMS_P2;Temp;Humidity;BMP_temperature;BMP_pressure;BME280_temperature;BME280_humidity;BME280_pressure;Samples;Min_cycle;Max_cycle;Signal;HPM_P1;HPM_P2
2021/08/01 00:02:12;;;;;;;9.97;8.17;;;15.50;99.90;;;;;;5113602;28;20159;-71
2021/08/01 00:04:38;;;;;;;8.80;7.87;;;15.50;99.90;;;;;;5114044;27;20217;-71
2021/08/01 00:07:05;;;;;;;9.17;8.27;;;15.50;99.90;;;;;;5113943;27;20169;-71
2021/08/01 00:09:30;;;;;;;11.47;8.70;;;15.50;99.90;;;;;;5113587;28;20154;-71
2021/08/01 00:11:56;;;;;;;10.67;8.50;;;15.60;99.90;;;;;;5113081;28;20406;-71
2021/08/01 00:14:22;;;;;;;9.43;8.43;;;15.60;99.90;;;;;;5113119;28;20530;-70
2021/08/01 00:16:47;;;;;;;11.00;9.27;;;15.60;99.90;;;;;;5113310;28;20533;-70
2021/08/01 00:19:13;;;;;;;11.33;9.20;;;15.60;99.90;;;;;;5113035;28;20657;-70
2021/08/01 00:21:38;;;;;;;10.70;9.60;;;15.60;99.90;;;;;;5113784;28;20193;-71
2021/08/01 00:24:04;;;;;;;11.53;9.17;;;15.60;99.90;;;;;;5113605;27;20168;-71
2021/08/01 00:26:30;;;;;;;10.13;8.50;;;15.60;99.90;;;;;;5121589;27;20172;-71
2021/08/01 00:28:55;;;;;;;13.00;9.40;;;15.60;99.90;;;;;;5113039;28;20385;-71
2021/08/01 00:31:21;;;;;;;10.63;9.10;;;15.70;99.90;;;;;;5113305;28;20616;-71
2021/08/01 00:33:47;;;;;;;11.93;7.80;;;15.70;99.90;;;;;;5113491;28;20516;-71
2021/08/01 00:36:12;;;;;;;9.47;8.20;;;15.70;99.90;;;;;;5112669;28;20623;-71
2021/08/01 00:38:38;;;;;;;12.30;9.00;;;15.70;99.90;;;;;;5113511;28;20201;-71
2021/08/01 00:41:03;;;;;;;9.00;7.37;;;15.70;99.90;;;;;;5113393;28;20689;-71
2021/08/01 00:43:30;;;;;;;10.10;8.00;;;15.70;99.90;;;;;;5112904;28;20154;-71
2021/08/01 00:45:56;;;;;;;9.40;8.13;;;15.70;99.90;;;;;;5113189;28;20150;-71
2021/08/01 00:48:24;;;;;;;8.37;7.57;;;15.70;99.90;;;;;;5113031;28;20807;-71
2021/08/01 00:50:49;;;;;;;9.55;8.27;;;15.70;99.90;;;;;;5112912;28;20240;-71
2021/08/01 00:53:15;;;;;;;9.53;6.87;;;15.70;99.90;;;;;;5112821;28;20229;-71
2021/08/01 00:55:41;;;;;;;9.20;7.07;;;15.70;99.90;;;;;;5113216;28;20175;-71
2021/08/01 00:58:07;;;;;;;9.43;7.20;;;15.70;99.90;;;;;;5113213;28;20403;-71
2021/08/01 01:00:52;;;;;;;7.97;6.60;;;15.70;99.90;;;;;;5112868;28;20235;-71
2021/08/01 01:03:23;;;;;;;8.68;7.20;;;15.70;99.90;;;;;;5112710;28;20790;-71
2021/08/01 01:05:58;;;;;;;9.63;7.20;;;15.70;99.90;;;;;;5112748;28;20653;-71
2021/08/01 01:11:08;;;;;;;7.90;7.00;;;15.80;99.90;;;;;;5069921;28;20547;-71
2021/08/01 01:13:40;;;;;;;10.53;8.37;;;15.80;99.90;;;;;;5051182;28;20419;-71
2021/08/01 01:16:05;;;;;;;7.60;6.80;;;15.80;99.90;;;;;;5050650;28;20837;-71
2021/08/01 01:18:41;;;;;;;9.97;6.87;;;15.80;99.90;;;;;;5049686;28;20422;-71
2021/08/01 01:24:07;;;;;;;8.93;6.60;;;15.80;99.90;;;;;;5062525;28;21153;-72
2021/08/01 01:26:37;;;;;;;6.83;6.13;;;15.80;99.90;;;;;;5049759;28;20429;-72
2021/08/01 01:29:14;;;;;;;8.20;7.40;;;15.80;99.90;;;;;;5043715;28;20947;-72
2021/08/01 01:34:29;;;;;;;8.47;7.43;;;15.80;99.90;;;;;;5069944;28;20521;-72
2021/08/01 01:36:59;;;;;;;9.07;7.13;;;15.90;99.90;;;;;;5069779;28;20457;-72
2021/08/01 01:39:26;;;;;;;7.27;6.57;;;15.90;99.90;;;;;;5069722;28;20394;-72
2021/08/01 01:41:51;;;;;;;7.50;6.70;;;15.90;99.90;;;;;;5069664;28;20405;-72
2021/08/01 01:44:18;;;;;;;8.07;6.77;;;15.90;99.90;;;;;;5069395;28;20395;-72
2021/08/01 01:46:44;;;;;;;9.53;6.43;;;15.90;99.90;;;;;;5069069;28;20529;-72
2021/08/01 01:49:11;;;;;;;10.77;8.07;;;15.90;99.90;;;;;;5068732;28;20402;-72
2021/08/01 01:51:37;;;;;;;7.03;6.20;;;15.90;99.90;;;;;;5069521;28;20394;-72
2021/08/01 01:54:06;;;;;;;8.33;6.87;;;16.00;99.90;;;;;;5069352;28;20540;-72
2021/08/01 01:56:34;;;;;;;9.17;7.67;;;16.00;99.90;;;;;;5069422;28;20816;-72
2021/08/01 01:59:01;;;;;;;11.00;6.80;;;16.00;99.90;;;;;;5069393;28;20383;-72
2021/08/01 02:01:26;;;;;;;8.30;7.23;;;16.00;99.90;;;;;;5069501;28;20398;-72
2021/08/01 02:03:52;;;;;;;7.77;6.50;;;16.00;99.90;;;;;;5068389;28;20410;-72
2021/08/01 02:06:19;;;;;;;8.83;7.03;;;16.00;99.90;;;;;;5068208;28;20240;-72
2021/08/01 02:08:55;;;;;;;8.37;6.93;;;16.00;99.90;;;;;;5069282;28;20456;-72
2021/08/01 02:11:24;;;;;;;7.47;6.73;;;16.00;99.90;;;;;;5069236;28;20398;-72
2021/08/01 02:13:59;;;;;;;9.60;6.57;;;16.10;99.90;;;;;;5069008;28;20494;-72
2021/08/01 02:16:32;;;;;;;7.50;6.43;;;16.10;99.90;;;;;;5069265;28;20482;-72
2021/08/01 02:19:00;;;;;;;6.73;6.00;;;16.10;99.90;;;;;;5068875;28;20390;-72
2021/08/01 02:21:27;;;;;;;10.10;8.50;;;16.10;99.90;;;;;;5067981;28;20414;-72
2021/08/01 02:23:54;;;;;;;10.10;7.27;;;16.10;99.90;;;;;;5054366;28;20423;-72
2021/08/01 02:26:22;;;;;;;9.67;8.07;;;16.00;99.90;;;;;;5048945;28;20431;-72
2021/08/01 02:28:51;;;;;;;11.40;8.30;;;16.10;99.90;;;;;;5049319;28;20400;-73
2021/08/01 02:31:17;;;;;;;9.57;7.47;;;16.10;99.90;;;;;;5049080;28;20395;-73
2021/08/01 02:33:43;;;;;;;8.50;6.90;;;16.10;99.90;;;;;;5048660;28;20463;-73
2021/08/01 02:36:10;;;;;;;11.73;8.80;;;16.00;99.90;;;;;;5048782;28;20407;-73
2021/08/01 02:38:38;;;;;;;9.10;8.03;;;16.10;99.90;;;;;;5049545;28;20184;-73
2021/08/01 02:41:11;;;;;;;8.70;6.60;;;16.00;99.90;;;;;;5049634;28;20827;-73
2021/08/01 02:43:37;;;;;;;9.70;7.30;;;16.10;99.90;;;;;;5047762;28;20765;-73
2021/08/01 02:46:05;;;;;;;12.40;8.10;;;16.10;99.90;;;;;;5035301;28;20414;-74
2021/08/01 02:48:32;;;;;;;10.80;8.13;;;16.10;99.90;;;;;;5035257;28;20722;-74
2021/08/01 02:51:02;;;;;;;9.53;7.43;;;16.10;99.90;;;;;;5035273;28;20397;-74
2021/08/01 02:53:29;;;;;;;9.37;8.20;;;16.10;99.90;;;;;;5035762;28;20447;-74
2021/08/01 02:55:57;;;;;;;10.67;7.97;;;16.10;99.90;;;;;;5035016;28;20898;-74
2021/08/01 02:58:26;;;;;;;8.80;7.30;;;16.10;99.90;;;;;;5035575;28;20466;-74
2021/08/01 03:00:53;;;;;;;10.17;7.83;;;16.10;99.90;;;;;;5034976;28;20420;-74
2021/08/01 03:03:20;;;;;;;11.67;8.33;;;16.10;99.90;;;;;;5034984;28;20889;-74
2021/08/01 03:05:46;;;;;;;11.63;8.73;;;16.10;99.90;;;;;;5035083;28;21004;-74
2021/08/01 03:08:13;;;;;;;10.30;8.60;;;16.10;99.90;;;;;;5034823;28;20404;-74
2021/08/01 03:10:42;;;;;;;10.13;8.53;;;16.10;99.90;;;;;;5035328;28;20418;-74
2021/08/01 03:13:09;;;;;;;10.73;8.17;;;16.10;99.90;;;;;;5034917;28;20435;-74
2021/08/01 03:15:34;;;;;;;11.40;8.90;;;16.10;99.90;;;;;;5054097;28;20407;-74
2021/08/01 03:18:00;;;;;;;11.37;9.37;;;16.10;99.90;;;;;;5054629;28;20517;-74
2021/08/01 03:20:25;;;;;;;9.23;8.33;;;16.10;99.90;;;;;;5054445;28;20240;-74
2021/08/01 03:22:51;;;;;;;13.00;8.07;;;16.00;99.90;;;;;;5048136;28;20181;-74
2021/08/01 03:25:16;;;;;;;9.17;7.70;;;16.00;99.90;;;;;;5034564;28;20161;-74
2021/08/01 03:27:42;;;;;;;12.17;9.17;;;16.00;99.90;;;;;;5035316;28;20185;-74
2021/08/01 03:30:08;;;;;;;8.77;7.40;;;16.00;99.90;;;;;;5034453;28;20578;-74
2021/08/01 03:32:34;;;;;;;12.00;9.17;;;16.00;99.90;;;;;;5034812;28;20278;-74
2021/08/01 03:34:59;;;;;;;11.60;8.83;;;16.00;99.90;;;;;;5034331;28;20483;-74
2021/08/01 03:37:26;;;;;;;16.63;9.00;;;16.00;99.90;;;;;;5034217;28;20240;-74
2021/08/01 03:39:53;;;;;;;12.63;10.03;;;16.00;99.90;;;;;;5034303;28;20153;-74
2021/08/01 03:42:18;;;;;;;13.20;9.40;;;16.00;99.90;;;;;;5034551;28;20396;-74
2021/08/01 03:44:44;;;;;;;12.97;9.70;;;16.00;99.90;;;;;;5034516;28;20424;-74
2021/08/01 03:47:10;;;;;;;10.60;8.70;;;16.00;99.90;;;;;;5034431;28;20170;-74
2021/08/01 03:49:36;;;;;;;16.33;11.67;;;16.00;99.90;;;;;;5053710;28;20186;-74
2021/08/01 03:52:01;;;;;;;11.90;9.10;;;16.00;99.90;;;;;;5053933;28;20928;-74
2021/08/01 03:54:27;;;;;;;13.20;10.73;;;15.90;99.90;;;;;;5053947;28;20157;-74
2021/08/01 03:56:53;;;;;;;14.50;10.87;;;16.00;99.90;;;;;;5053050;28;20211;-74
2021/08/01 03:59:18;;;;;;;15.97;10.80;;;15.90;99.90;;;;;;5053602;28;20157;-74
2021/08/01 04:01:44;;;;;;;15.87;12.50;;;15.90;99.90;;;;;;5053006;28;20414;-74
2021/08/01 04:04:09;;;;;;;12.83;10.43;;;16.00;99.90;;;;;;5053368;28;20160;-75
2021/08/01 04:06:35;;;;;;;11.77;10.40;;;16.00;99.90;;;;;;5053132;28;20204;-74
2021/08/01 04:09:04;;;;;;;12.10;10.40;;;16.00;99.90;;;;;;5053677;28;20199;-74
2021/08/01 04:11:31;;;;;;;12.73;10.07;;;16.00;99.90;;;;;;5053806;28;20415;-74
2021/08/01 04:13:56;;;;;;;14.47;10.47;;;16.00;99.90;;;;;;5053438;28;20447;-74
2021/08/01 04:16:22;;;;;;;17.07;12.23;;;16.00;99.90;;;;;;5053626;28;20391;-74
2021/08/01 04:18:48;;;;;;;12.47;9.87;;;16.00;99.90;;;;;;5052615;28;20542;-74
2021/08/01 04:21:13;;;;;;;15.37;10.40;;;16.00;99.90;;;;;;5052705;28;20168;-74
2021/08/01 04:23:40;;;;;;;14.00;11.90;;;16.00;99.90;;;;;;5033924;28;20177;-74
2021/08/01 04:26:06;;;;;;;15.47;11.67;;;16.00;99.90;;;;;;5033650;28;20165;-74
2021/08/01 04:28:33;;;;;;;15.20;11.03;;;16.10;99.90;;;;;;5033300;28;20817;-74
2021/08/01 04:30:58;;;;;;;13.07;10.70;;;16.00;99.90;;;;;;5033240;28;20767;-74
2021/08/01 04:33:24;;;;;;;15.60;11.67;;;16.00;99.90;;;;;;5032998;28;20468;-74
2021/08/01 04:35:50;;;;;;;16.80;12.30;;;16.10;99.90;;;;;;5033841;28;20216;-74
2021/08/01 04:38:16;;;;;;;14.23;10.60;;;16.00;99.90;;;;;;5033803;28;20408;-74
2021/08/01 04:40:41;;;;;;;14.73;11.03;;;16.00;99.90;;;;;;5053160;28;20505;-74
2021/08/01 04:43:07;;;;;;;15.43;11.27;;;16.00;99.90;;;;;;5053071;28;20163;-74
2021/08/01 04:45:32;;;;;;;14.10;10.30;;;16.00;99.90;;;;;;5052929;28;20161;-74
2021/08/01 04:47:58;;;;;;;12.27;10.00;;;16.00;99.90;;;;;;5053000;28;20161;-74
2021/08/01 04:50:23;;;;;;;17.47;12.17;;;16.00;99.90;;;;;;5053175;28;20165;-73
2021/08/01 04:52:51;;;;;;;14.53;10.13;;;16.00;99.90;;;;;;5052195;28;20235;-73
2021/08/01 04:55:16;;;;;;;15.70;11.87;;;16.00;99.90;;;;;;5051579;28;20176;-74
2021/08/01 04:57:42;;;;;;;10.47;8.83;;;16.00;99.90;;;;;;5032933;28;20762;-74
2021/08/01 05:00:08;;;;;;;13.73;10.77;;;16.00;99.90;;;;;;5032759;28;20189;-74
2021/08/01 05:02:34;;;;;;;13.30;10.27;;;16.00;99.90;;;;;;5033077;28;20578;-74
2021/08/01 05:05:01;;;;;;;12.07;10.77;;;16.00;99.90;;;;;;5032856;28;20399;-74
2021/08/01 05:07:27;;;;;;;12.33;9.80;;;16.00;99.90;;;;;;5032699;28;20158;-74
2021/08/01 05:09:53;;;;;;;11.67;10.43;;;16.10;99.90;;;;;;5033146;28;20412;-74
2021/08/01 05:12:18;;;;;;;15.20;11.17;;;16.10;99.90;;;;;;5033139;28;20160;-74
2021/08/01 05:14:45;;;;;;;12.00;9.83;;;16.10;99.90;;;;;;5032666;28;20161;-73
2021/08/01 05:17:11;;;;;;;13.83;11.60;;;16.10;99.90;;;;;;5032505;28;20646;-73
2021/08/01 05:19:39;;;;;;;11.90;9.90;;;16.10;99.90;;;;;;5032807;28;20439;-73
2021/08/01 05:22:05;;;;;;;11.63;10.43;;;16.10;99.90;;;;;;5032561;28;20503;-73
2021/08/01 05:24:31;;;;;;;12.27;9.53;;;16.20;99.90;;;;;;5032841;28;20394;-73
2021/08/01 05:26:57;;;;;;;13.07;9.10;;;16.20;99.90;;;;;;5033193;28;20903;-73
2021/08/01 05:29:22;;;;;;;13.57;9.23;;;16.20;99.90;;;;;;5033104;28;20236;-73
2021/08/01 05:31:48;;;;;;;11.50;9.10;;;16.20;99.90;;;;;;5032397;28;20218;-73
2021/08/01 05:34:13;;;;;;;10.30;7.70;;;16.20;99.90;;;;;;5032528;28;20299;-73
2021/08/01 05:36:39;;;;;;;10.10;8.50;;;16.20;99.90;;;;;;5032472;28;20173;-73
2021/08/01 05:39:05;;;;;;;10.23;8.73;;;16.20;99.90;;;;;;5032383;28;20248;-73
2021/08/01 05:41:30;;;;;;;9.23;8.27;;;16.20;99.90;;;;;;5032387;28;20622;-74
2021/08/01 05:43:56;;;;;;;10.97;8.40;;;16.20;99.90;;;;;;5032876;28;20225;-74
2021/08/01 05:46:21;;;;;;;9.77;8.77;;;16.20;99.90;;;;;;5032722;28;20260;-74
2021/08/01 05:48:47;;;;;;;8.80;7.67;;;16.20;99.90;;;;;;5032471;28;20165;-73
2021/08/01 05:51:13;;;;;;;9.83;8.50;;;16.20;99.90;;;;;;5032231;28;20162;-73
2021/08/01 05:53:38;;;;;;;8.67;7.77;;;16.20;99.90;;;;;;5032376;28;20239;-73
2021/08/01 05:56:12;;;;;;;8.63;7.73;;;16.30;99.90;;;;;;5031986;28;20166;-73
2021/08/01 05:58:39;;;;;;;9.20;8.20;;;16.30;99.90;;;;;;5031993;28;20161;-73
2021/08/01 06:01:07;;;;;;;8.30;7.40;;;16.30;99.90;;;;;;5032749;28;20779;-73
2021/08/01 06:03:33;;;;;;;8.40;7.50;;;16.30;99.90;;;;;;5033004;28;20470;-73
2021/08/01 06:06:07;;;;;;;10.27;8.20;;;16.30;99.90;;;;;;5032440;28;20404;-73
2021/08/01 06:08:33;;;;;;;9.57;8.10;;;16.30;99.90;;;;;;5032291;28;20286;-74
2021/08/01 06:10:58;;;;;;;9.97;8.43;;;16.30;99.90;;;;;;5032150;28;20431;-74
2021/08/01 06:13:24;;;;;;;10.97;9.60;;;16.40;99.90;;;;;;5031973;28;20230;-74
2021/08/01 06:15:49;;;;;;;11.10;9.10;;;16.40;99.90;;;;;;5032353;28;20154;-74
2021/08/01 06:18:15;;;;;;;12.40;8.60;;;16.50;99.90;;;;;;5032703;28;20184;-73
2021/08/01 06:20:40;;;;;;;13.50;7.70;;;16.50;99.90;;;;;;5035406;28;20177;-73
2021/08/01 06:23:06;;;;;;;11.20;9.00;;;16.60;99.90;;;;;;5035834;28;20662;-73
2021/08/01 06:25:35;;;;;;;9.90;8.70;;;16.60;99.90;;;;;;5035831;28;20168;-73
2021/08/01 06:28:00;;;;;;;10.47;8.97;;;16.70;99.90;;;;;;5035722;28;20153;-73
2021/08/01 06:30:26;;;;;;;12.93;9.40;;;16.70;99.90;;;;;;5036012;28;20399;-74
2021/08/01 06:32:51;;;;;;;11.57;9.53;;;16.70;99.90;;;;;;5035561;28;20288;-74
2021/08/01 06:35:17;;;;;;;14.57;10.20;;;16.70;99.90;;;;;;5036312;28;20207;-74
2021/08/01 06:37:42;;;;;;;13.57;11.13;;;16.70;99.90;;;;;;5036026;28;20176;-74
2021/08/01 06:40:10;;;;;;;12.87;9.53;;;16.70;99.90;;;;;;5035472;28;20635;-75
2021/08/01 06:42:36;;;;;;;17.73;12.53;;;16.70;99.90;;;;;;5035280;28;20158;-75
2021/08/01 06:45:02;;;;;;;18.07;12.90;;;16.80;99.90;;;;;;5035638;28;20784;-75
2021/08/01 06:47:27;;;;;;;18.07;13.00;;;16.80;99.90;;;;;;5035565;28;20197;-75
2021/08/01 06:49:53;;;;;;;15.63;13.43;;;16.90;99.90;;;;;;5035319;28;20432;-75
2021/08/01 06:52:18;;;;;;;16.87;12.90;;;16.90;99.90;;;;;;5035570;28;20265;-75
2021/08/01 06:54:44;;;;;;;21.50;14.63;;;17.00;99.90;;;;;;5035815;28;20200;-73
2021/08/01 06:57:10;;;;;;;18.70;14.97;;;17.10;99.90;;;;;;5035489;28;20201;-73
2021/08/01 06:59:35;;;;;;;16.97;12.90;;;17.20;99.90;;;;;;5035446;28;20219;-73
2021/08/01 07:02:01;;;;;;;15.67;12.23;;;17.30;99.90;;;;;;5035351;28;20153;-73
2021/08/01 07:04:26;;;;;;;18.87;13.83;;;17.50;99.90;;;;;;5034933;28;20166;-73
2021/08/01 07:06:52;;;;;;;14.20;11.80;;;17.70;99.90;;;;;;5035185;28;20571;-73
2021/08/01 07:09:17;;;;;;;17.53;11.57;;;17.80;99.90;;;;;;5035484;28;20193;-73
2021/08/01 07:11:43;;;;;;;11.37;9.70;;;18.00;99.90;;;;;;5035654;28;20716;-73
2021/08/01 07:14:08;;;;;;;11.63;9.40;;;18.00;99.90;;;;;;5034902;28;20193;-73
2021/08/01 07:16:40;;;;;;;15.87;9.30;;;18.10;99.90;;;;;;5034851;28;20673;-73
2021/08/01 07:19:06;;;;;;;11.10;7.57;;;18.20;99.90;;;;;;5034363;28;20203;-73
2021/08/01 07:21:31;;;;;;;13.60;8.27;;;18.40;99.90;;;;;;5034323;28;20445;-73
2021/08/01 07:23:57;;;;;;;14.33;8.73;;;18.50;99.90;;;;;;5034600;28;20158;-73
2021/08/01 07:26:22;;;;;;;10.40;6.40;;;18.60;99.90;;;;;;5035639;28;20219;-73
2021/08/01 07:28:48;;;;;;;6.73;6.03;;;18.70;99.90;;;;;;5035456;28;20184;-73
2021/08/01 07:31:13;;;;;;;5.43;4.83;;;18.80;99.90;;;;;;5034356;28;20172;-73
2021/08/01 07:33:39;;;;;;;7.20;4.80;;;19.00;99.90;;;;;;5034276;28;20279;-73
2021/08/01 07:36:04;;;;;;;5.27;4.43;;;19.10;99.90;;;;;;5034609;28;20169;-73
2021/08/01 07:38:30;;;;;;;7.30;4.23;;;19.20;99.90;;;;;;5034402;28;20161;-73
2021/08/01 07:40:55;;;;;;;4.93;3.80;;;19.40;99.90;;;;;;5034808;28;20180;-73
2021/08/01 07:43:21;;;;;;;8.93;4.40;;;19.60;99.90;;;;;;5034950;28;20516;-73
2021/08/01 07:45:46;;;;;;;6.50;3.60;;;20.00;99.90;;;;;;5034789;28;20174;-73
2021/08/01 07:48:12;;;;;;;4.47;3.33;;;20.50;99.90;;;;;;5034109;28;20156;-73
2021/08/01 07:50:37;;;;;;;3.83;3.43;;;21.40;99.90;;;;;;5034023;28;20168;-73
2021/08/01 07:53:03;;;;;;;6.20;2.80;;;22.20;99.90;;;;;;5033903;28;20565;-73
2021/08/01 07:55:28;;;;;;;2.93;2.20;;;23.30;99.90;;;;;;5034679;28;20167;-73
2021/08/01 07:57:56;;;;;;;2.43;1.73;;;24.50;99.90;;;;;;5034260;28;20168;-73
2021/08/01 08:00:21;;;;;;;1.63;1.40;;;25.70;99.90;;;;;;5034575;28;20183;-73
2021/08/01 08:02:47;;;;;;;2.17;1.53;;;26.60;99.20;;;;;;5034367;28;20422;-73
2021/08/01 08:05:13;;;;;;;2.40;1.53;;;27.30;98.20;;;;;;5033878;28;20161;-73
2021/08/01 08:07:39;;;;;;;2.23;1.80;;;27.80;94.50;;;;;;5034122;28;20162;-74
2021/08/01 08:10:06;;;;;;;2.20;1.33;;;27.90;94.30;;;;;;5033796;28;20412;-74
2021/08/01 08:12:31;;;;;;;1.30;1.20;;;27.80;92.90;;;;;;5033619;28;20493;-74
2021/08/01 08:14:57;;;;;;;3.13;1.50;;;27.50;92.70;;;;;;5033441;28;20415;-74
2021/08/01 08:17:22;;;;;;;2.97;1.50;;;27.20;92.30;;;;;;5034297;28;20292;-74
2021/08/01 08:19:48;;;;;;;2.37;1.83;;;27.00;93.10;;;;;;5033869;28;20181;-74
2021/08/01 08:22:14;;;;;;;2.90;1.57;;;26.80;93.50;;;;;;5042170;28;20188;-73
2021/08/01 08:24:39;;;;;;;3.60;1.50;;;26.70;92.30;;;;;;5033611;28;20210;-73
2021/08/01 08:27:05;;;;;;;2.10;1.70;;;26.60;93.80;;;;;;5033253;28;20556;-73
2021/08/01 08:29:32;;;;;;;2.23;1.80;;;26.40;93.40;;;;;;5033579;28;20171;-73
2021/08/01 08:31:58;;;;;;;1.50;1.10;;;26.10;93.60;;;;;;5033125;28;20168;-73
2021/08/01 08:34:24;;;;;;;4.83;1.77;;;26.10;94.30;;;;;;5033800;28;20972;-73
2021/08/01 08:36:53;;;;;;;2.83;1.60;;;26.00;93.30;;;;;;5034344;28;20912;-73
2021/08/01 08:39:21;;;;;;;4.83;1.60;;;26.50;94.00;;;;;;5033318;28;20389;-73
2021/08/01 08:41:47;;;;;;;1.90;1.37;;;27.20;92.10;;;;;;5032954;28;20396;-74
2021/08/01 08:44:13;;;;;;;2.03;1.47;;;27.30;90.00;;;;;;5032964;28;20769;-73
2021/08/01 08:46:41;;;;;;;2.10;1.77;;;27.50;90.20;;;;;;5032906;28;20395;-74
2021/08/01 08:49:09;;;;;;;1.80;1.70;;;27.30;90.00;;;;;;5033234;28;20162;-74
2021/08/01 08:51:37;;;;;;;2.23;1.77;;;27.30;90.00;;;;;;5034058;28;20511;-73
2021/08/01 08:54:06;;;;;;;2.80;1.63;;;27.20;89.70;;;;;;5033501;28;20539;-73
2021/08/01 08:56:31;;;;;;;2.00;1.80;;;26.70;89.10;;;;;;5032786;28;20815;-73
2021/08/01 08:58:57;;;;;;;3.50;2.10;;;26.10;92.10;;;;;;5032843;28;20452;-73
2021/08/01 09:01:23;;;;;;;5.60;2.00;;;26.00;92.50;;;;;;5033022;28;20165;-73
2021/08/01 09:03:49;;;;;;;3.53;1.77;;;26.40;91.50;;;;;;5032873;28;20396;-73
2021/08/01 09:06:15;;;;;;;2.30;1.80;;;27.10;90.50;;;;;;5033097;28;20560;-73
2021/08/01 09:08:41;;;;;;;2.43;2.23;;;27.90;86.60;;;;;;5033375;28;20181;-73
2021/08/01 09:11:07;;;;;;;2.03;1.83;;;28.30;85.20;;;;;;5033284;28;20424;-73
2021/08/01 09:13:50;;;;;;;2.00;1.80;;;29.20;82.00;;;;;;5032618;28;20188;-74
2021/08/01 09:16:17;;;;;;;5.87;1.50;;;30.80;78.00;;;;;;5032879;28;20158;-73
2021/08/01 09:18:44;;;;;;;2.70;1.80;;;32.10;71.70;;;;;;5032746;28;20477;-74
2021/08/01 09:21:27;;;;;;;2.80;1.90;;;33.20;64.20;;;;;;5032328;28;20435;-74
2021/08/01 09:23:53;;;;;;;2.17;1.97;;;32.90;59.90;;;;;;5032480;28;20758;-74
2021/08/01 09:26:19;;;;;;;3.03;2.37;;;32.00;60.20;;;;;;5032980;28;20418;-74
2021/08/01 09:29:01;;;;;;;2.47;2.27;;;30.90;62.60;;;;;;5032864;28;20561;-74
2021/08/01 09:31:27;;;;;;;3.43;2.70;;;29.80;64.30;;;;;;5032488;28;20154;-73
2021/08/01 09:33:53;;;;;;;2.77;2.53;;;28.70;66.80;;;;;;5032849;28;20467;-73
2021/08/01 09:36:21;;;;;;;2.10;1.90;;;27.80;69.70;;;;;;5032218;28;20416;-73
2021/08/01 09:41:36;;;;;;;1.70;1.60;;;27.10;72.50;;;;;;5068905;28;20520;-73
2021/08/01 09:44:04;;;;;;;1.90;1.80;;;27.50;74.60;;;;;;5049843;28;20423;-73
2021/08/01 09:46:39;;;;;;;2.27;1.53;;;28.00;75.80;;;;;;5049780;28;20410;-73
2021/08/01 09:49:21;;;;;;;3.40;2.17;;;28.50;75.70;;;;;;5049920;28;20391;-73
2021/08/01 09:51:49;;;;;;;2.30;2.10;;;28.50;70.80;;;;;;5049963;28;20437;-74
2021/08/01 09:54:17;;;;;;;4.97;2.30;;;28.20;71.70;;;;;;5049735;28;20482;-74
2021/08/01 09:57:01;;;;;;;4.73;2.20;;;27.70;71.40;;;;;;5049625;28;20434;-73
2021/08/01 09:59:30;;;;;;;1.83;1.73;;;27.30;74.40;;;;;;5049349;28;20484;-73
2021/08/01 10:01:57;;;;;;;2.10;1.90;;;27.10;75.50;;;;;;5049806;28;20406;-73
2021/08/01 10:04:26;;;;;;;2.20;2.00;;;27.00;76.60;;;;;;5049747;28;20872;-73
2021/08/01 10:07:00;;;;;;;3.13;1.97;;;26.90;76.90;;;;;;5049596;28;20402;-73
2021/08/01 10:09:27;;;;;;;3.27;2.63;;;26.70;75.50;;;;;;5049516;28;20423;-73
2021/08/01 10:11:53;;;;;;;2.50;2.23;;;26.60;76.90;;;;;;5049430;28;20387;-73
2021/08/01 10:14:19;;;;;;;2.43;2.17;;;26.70;77.40;;;;;;5049322;28;20403;-73
2021/08/01 10:16:44;;;;;;;5.00;2.37;;;26.60;76.90;;;;;;5049300;28;20430;-73
2021/08/01 10:19:10;;;;;;;2.13;1.93;;;26.60;75.50;;;;;;5048783;28;20661;-73
2021/08/01 10:21:36;;;;;;;2.50;2.27;;;26.60;78.00;;;;;;5045416;28;20173;-73
2021/08/01 10:24:03;;;;;;;2.50;2.00;;;26.50;75.20;;;;;;5028971;28;20161;-74
2021/08/01 10:26:36;;;;;;;2.80;2.47;;;26.40;74.70;;;;;;5029451;28;20197;-73
2021/08/01 10:29:07;;;;;;;2.57;2.37;;;26.20;77.10;;;;;;5029479;28;20410;-73
2021/08/01 10:31:37;;;;;;;2.97;2.60;;;26.00;76.70;;;;;;5029145;28;20878;-73
2021/08/01 10:34:35;;;;;;;5.97;3.10;;;25.90;79.50;;;;;;5043534;28;20437;-73
2021/08/01 10:37:05;;;;;;;3.63;3.33;;;25.60;79.40;;;;;;5048649;28;20891;-73
2021/08/01 10:39:33;;;;;;;2.87;2.53;;;25.30;78.30;;;;;;5048527;28;20941;-73
2021/08/01 10:42:05;;;;;;;3.90;2.13;;;25.10;79.90;;;;;;5049057;28;20768;-73
2021/08/01 10:44:31;;;;;;;3.50;2.80;;;24.80;81.10;;;;;;5049000;28;20421;-73
2021/08/01 10:46:57;;;;;;;3.37;3.07;;;24.60;83.50;;;;;;5048617;28;20401;-73
2021/08/01 10:49:23;;;;;;;3.97;3.10;;;24.50;84.60;;;;;;5048564;28;20914;-74
2021/08/01 10:51:49;;;;;;;3.87;2.57;;;24.30;84.60;;;;;;5040710;28;20402;-73
2021/08/01 10:57:15;;;;;;;2.90;2.63;;;24.20;85.50;;;;;;5070220;28;20613;-74
2021/08/01 11:02:28;;;;;;;4.63;2.60;;;23.90;85.70;;;;;;5126273;27;21080;-73
2021/08/01 11:04:55;;;;;;;3.00;2.70;;;23.50;84.80;;;;;;5110492;28;20396;-73
2021/08/01 11:12:45;;;;;;;4.37;3.00;;;23.40;87.90;;;;;;5131185;27;21052;-73
2021/08/01 11:15:13;;;;;;;3.73;2.30;;;23.10;87.80;;;;;;5130927;28;20513;-73
2021/08/01 11:22:58;;;;;;;2.47;2.27;;;23.10;90.10;;;;;;5070087;28;20936;-72
2021/08/01 11:49:33;;;;;;;5.40;2.70;;;23.00;91.40;;;;;;5069837;28;20598;-74
2021/08/01 11:52:01;;;;;;;2.73;2.47;;;22.90;91.40;;;;;;5069967;28;20759;-74
2021/08/01 11:57:12;;;;;;;2.80;2.60;;;22.90;90.80;;;;;;5105670;27;20560;-73
2021/08/01 11:59:38;;;;;;;2.70;2.33;;;22.70;91.40;;;;;;5070961;28;20413;-73
2021/08/01 12:02:10;;;;;;;2.70;2.50;;;22.70;92.60;;;;;;5070330;28;20430;-73
2021/08/01 12:04:37;;;;;;;2.63;2.43;;;22.60;92.40;;;;;;5069971;28;20386;-73
2021/08/01 12:07:02;;;;;;;4.10;2.90;;;22.60;92.40;;;;;;5069769;28;20382;-73
2021/08/01 12:09:31;;;;;;;2.30;1.97;;;22.60;91.40;;;;;;5069926;28;20440;-73
2021/08/01 12:12:00;;;;;;;2.50;2.30;;;22.60;93.20;;;;;;5069473;28;20156;-73
2021/08/01 12:14:29;;;;;;;2.87;2.43;;;22.70;93.00;;;;;;5069919;28;20382;-74
2021/08/01 12:22:17;;;;;;;2.13;1.90;;;22.50;91.80;;;;;;5110720;27;20506;-73
2021/08/01 12:24:45;;;;;;;2.30;1.97;;;22.40;91.40;;;;;;5110327;28;20423;-73
2021/08/01 12:27:14;;;;;;;3.00;2.70;;;22.30;92.10;;;;;;5110264;28;20395;-73
2021/08/01 12:30:07;;;;;;;1.70;1.60;;;22.20;93.40;;;;;;5110156;28;20435;-73
2021/08/01 12:35:12;;;;;;;2.53;2.33;;;22.20;93.30;;;;;;5061946;28;20526;-73
2021/08/01 12:40:40;;;;;;;2.67;2.33;;;22.20;93.90;;;;;;5069659;28;21114;-74
2021/08/01 12:45:46;;;;;;;3.27;2.30;;;22.30;95.60;;;;;;5069869;28;20515;-73
2021/08/01 12:48:16;;;;;;;2.73;2.53;;;22.30;96.30;;;;;;5070039;28;20394;-73
2021/08/01 12:50:48;;;;;;;4.80;2.37;;;22.20;94.60;;;;;;5051100;28;20854;-75
2021/08/01 12:53:16;;;;;;;3.20;2.63;;;22.20;94.40;;;;;;5050503;28;20548;-73
2021/08/01 12:55:42;;;;;;;2.87;1.87;;;22.10;95.30;;;;;;5049646;28;20888;-73
2021/08/01 12:58:09;;;;;;;3.33;2.40;;;21.90;95.10;;;;;;5049499;28;20744;-73
2021/08/01 13:00:38;;;;;;;3.33;2.47;;;21.90;96.00;;;;;;5049622;28;20881;-73
2021/08/01 13:03:06;;;;;;;3.30;2.97;;;21.90;96.20;;;;;;5049722;28;20415;-73
2021/08/01 13:05:33;;;;;;;3.93;3.40;;;22.00;96.20;;;;;;5050088;28;20486;-73
2021/08/01 13:08:00;;;;;;;2.80;2.60;;;21.90;94.70;;;;;;5049355;28;20452;-73
2021/08/01 13:10:29;;;;;;;3.20;2.70;;;21.90;94.90;;;;;;5050126;28;20426;-75
2021/08/01 13:16:06;;;;;;;3.57;2.37;;;21.90;96.90;;;;;;5130941;27;20644;-72
2021/08/01 13:18:34;;;;;;;3.37;2.37;;;21.90;96.40;;;;;;5119282;28;20465;-73
2021/08/01 13:23:52;;;;;;;2.20;1.97;;;21.90;97.30;;;;;;5057489;28;20915;-72
2021/08/01 13:26:29;;;;;;;2.77;2.13;;;21.90;98.10;;;;;;5050077;28;20851;-72
2021/08/01 13:29:06;;;;;;;3.13;2.57;;;21.80;96.50;;;;;;5049832;28;20397;-72
2021/08/01 13:36:52;;;;;;;2.50;2.17;;;21.80;98.00;;;;;;5069949;28;20516;-73
2021/08/01 13:39:21;;;;;;;2.90;2.50;;;21.80;99.50;;;;;;5069990;28;20472;-73
2021/08/01 13:42:05;;;;;;;3.67;2.80;;;21.70;99.50;;;;;;5050101;28;20777;-73
2021/08/01 13:50:13;;;;;;;2.80;2.23;;;21.60;99.40;;;;;;5090006;27;21080;-73
2021/08/01 13:52:45;;;;;;;7.27;2.90;;;21.50;98.40;;;;;;5090066;28;20879;-73
2021/08/01 13:55:11;;;;;;;3.23;2.93;;;21.50;98.40;;;;;;5090025;28;20413;-73
2021/08/01 13:57:36;;;;;;;2.73;2.53;;;21.40;99.20;;;;;;5079537;28;20819;-73
2021/08/01 14:00:05;;;;;;;3.53;2.73;;;21.40;99.90;;;;;;5070792;28;20440;-73
2021/08/01 14:02:30;;;;;;;3.07;2.77;;;21.40;99.60;;;;;;5069927;28;20259;-74
2021/08/01 14:04:57;;;;;;;3.53;3.07;;;21.40;99.10;;;;;;5069496;28;20477;-73
2021/08/01 14:07:22;;;;;;;2.70;2.50;;;21.40;99.90;;;;;;5069388;28;20202;-73